Liguria — IRKJ — position and weather

sailwx.info

Track history (hours):
 
Tides and Currents Weather Stations Pressure Air Temp Water Temp Dewpoint Dewpoint Depression Visibility Wind Speed Wind Dir Waves Ship Positions

Liguria

Last reported at 2014-Sep-16 18:33 UTC. Time now 2014-Sep-16 19:29 UTC.
Position N 44°18' E 008°30'.

Length 30 m.

Type: Tug. MMSI: 247228500.

Date/timePositionNaut miles runAvg speedWind from/ knotsBaromVisibWave heightAir tempDewpointWater temp
2014-Sep-16 18:33N 44°18' E 008°30'2 2.3
2014-Sep-16 17:32N 44°16' E 008°28'2 1.2
2014-Sep-16 15:27N 44°18' E 008°29'0 0.0
2014-Sep-16 13:18N 44°18' E 008°29'0 0.0
2014-Sep-16 12:33N 44°18' E 008°29'0 0.0
2014-Sep-16 11:33N 44°18' E 008°29'0 0.0
2014-Sep-16 10:33N 44°18' E 008°29'0 0.0
2014-Sep-16 07:33N 44°18' E 008°29'0 0.0
2014-Sep-16 06:32N 44°18' E 008°29'0 0.0
2014-Sep-16 05:16N 44°18' E 008°29'0 0.0
2014-Sep-16 04:19N 44°18' E 008°29'0 0.0
2014-Sep-15 21:08N 44°18' E 008°29'0 0.0
2014-Sep-15 20:15N 44°18' E 008°29'0 0.0
2014-Sep-15 19:31N 44°18' E 008°29'0 0.0
2014-Sep-15 18:32N 44°18' E 008°29'1 0.7
2014-Sep-15 17:23N 44°19' E 008°30'1 0.4
2014-Sep-15 15:33N 44°18' E 008°29'0 0.0
2014-Sep-15 14:33N 44°18' E 008°29'0 0.0
2014-Sep-15 13:17N 44°18' E 008°29'0 0.0
2014-Sep-15 11:32N 44°18' E 008°29'0 0.0
2014-Sep-15 10:20N 44°18' E 008°29'0 0.0
2014-Sep-15 09:30N 44°18' E 008°29'2 2.3
2014-Sep-15 08:33N 44°17' E 008°27'0 0.2
2014-Sep-15 07:33N 44°17' E 008°27'1 1.2
2014-Sep-15 06:31N 44°17' E 008°29'1 1.3
2014-Sep-15 05:33N 44°18' E 008°29'0 0.0
2014-Sep-15 04:32N 44°18' E 008°29'0 0.0
2014-Sep-15 03:33N 44°18' E 008°29'0 0.0
2014-Sep-14 17:31N 44°18' E 008°29'0 0.0
2014-Sep-14 16:31N 44°18' E 008°29'0 0.0
2014-Sep-14 15:25N 44°18' E 008°29'0 0.0
2014-Sep-14 14:32N 44°18' E 008°29'0 0.0
2014-Sep-14 11:29N 44°18' E 008°29'0 0.0
2014-Sep-14 07:32N 44°18' E 008°29'0 0.0
2014-Sep-14 04:08N 44°18' E 008°29'0 0.0
2014-Sep-12 13:23N 44°19' E 008°30'3 3.1
2014-Sep-12 12:33N 44°17' E 008°28'1 0.9
2014-Sep-12 11:33N 44°17' E 008°29'1 1.3
2014-Sep-12 10:32N 44°18' E 008°29'0 0.0
2014-Sep-12 08:17N 44°18' E 008°29'0 0.0
2014-Sep-12 07:33N 44°18' E 008°29'0 0.0
2014-Sep-12 06:33N 44°18' E 008°29'0 0.0
2014-Sep-12 05:16N 44°18' E 008°29'0 0.0
2014-Sep-12 04:17N 44°18' E 008°29'0 0.0
2014-Sep-11 11:33N 44°18' E 008°29'0 0.0
2014-Sep-11 10:32N 44°18' E 008°29'0 0.0
2014-Sep-11 09:15N 44°18' E 008°29'0 0.0
2014-Sep-11 08:16N 44°18' E 008°29'1 1.1
2014-Sep-11 07:31N 44°19' E 008°30'3 3.1
2014-Sep-11 06:31N 44°17' E 008°28'2 1.0
2014-Sep-11 04:06N 44°18' E 008°29'0 0.0
2014-Sep-11 03:27N 44°18' E 008°29'0 0.0
2014-Sep-11 01:30N 44°18' E 008°29'0 0.0
2014-Sep-10 23:33N 44°18' E 008°29'0 0.0
2014-Sep-10 22:21N 44°18' E 008°29'3 0.3
2014-Sep-10 11:32N 44°16' E 008°27'3 0.6
2014-Sep-10 07:16N 44°18' E 008°29'0 0.0
2014-Sep-10 06:22N 44°18' E 008°29'0 0.0
2014-Sep-10 05:17N 44°18' E 008°29'1 1.0
2014-Sep-10 04:26N 44°19' E 008°30'1 0.0
2014-Sep-09 15:33N 44°19' E 008°30'2 1.6
2014-Sep-09 14:33N 44°17' E 008°29'1 0.2
2014-Sep-09 07:26N 44°18' E 008°29'0 0.0
2014-Sep-09 02:17N 44°18' E 008°29'0 0.0
2014-Sep-09 01:05N 44°18' E 008°29'0 0.0
2014-Sep-08 23:11N 44°18' E 008°29'0 0.0
2014-Sep-08 19:23N 44°18' E 008°29'0 0.0
2014-Sep-08 18:29N 44°18' E 008°29'0 0.0
2014-Sep-08 15:32N 44°18' E 008°29'0 0.0
2014-Sep-08 10:32N 44°18' E 008°29'1 0.8
2014-Sep-08 09:23N 44°19' E 008°31'4 4.5
2014-Sep-08 08:31N 44°16' E 008°27'1 1.0
2014-Sep-08 07:32N 44°17' E 008°28'1 0.2
2014-Sep-07 23:34N 44°18' E 008°29'1 1.2
2014-Sep-07 22:27N 44°17' E 008°28'0 0.0
2014-Sep-07 21:30N 44°17' E 008°28'2 0.4
2014-Sep-07 15:31N 44°18' E 008°29'  
Track history (hours):
 
Tides and Currents Weather Stations Pressure Air Temp Water Temp Dewpoint Dewpoint Depression Visibility Wind Speed Wind Dir Waves Ship Positions

Liguria

Last reported at 2014-Sep-16 18:33 UTC. Time now 2014-Sep-16 19:29 UTC.
Position N 44°18' E 008°30'.

Length 30 m.

Type: Tug. MMSI: 247228500.

Date/timePositionNaut miles runAvg speedWind from/ knotsBaromVisibWave heightAir tempDewpointWater temp
2014-Sep-16 18:33N 44°18' E 008°30'2 2.3
2014-Sep-16 17:32N 44°16' E 008°28'2 1.2
2014-Sep-16 15:27N 44°18' E 008°29'0 0.0
2014-Sep-16 13:18N 44°18' E 008°29'0 0.0
2014-Sep-16 12:33N 44°18' E 008°29'0 0.0
2014-Sep-16 11:33N 44°18' E 008°29'0 0.0
2014-Sep-16 10:33N 44°18' E 008°29'0 0.0
2014-Sep-16 07:33N 44°18' E 008°29'0 0.0
2014-Sep-16 06:32N 44°18' E 008°29'0 0.0
2014-Sep-16 05:16N 44°18' E 008°29'0 0.0
2014-Sep-16 04:19N 44°18' E 008°29'0 0.0
2014-Sep-15 21:08N 44°18' E 008°29'0 0.0
2014-Sep-15 20:15N 44°18' E 008°29'0 0.0
2014-Sep-15 19:31N 44°18' E 008°29'0 0.0
2014-Sep-15 18:32N 44°18' E 008°29'1 0.7
2014-Sep-15 17:23N 44°19' E 008°30'1 0.4
2014-Sep-15 15:33N 44°18' E 008°29'0 0.0
2014-Sep-15 14:33N 44°18' E 008°29'0 0.0
2014-Sep-15 13:17N 44°18' E 008°29'0 0.0
2014-Sep-15 11:32N 44°18' E 008°29'0 0.0
2014-Sep-15 10:20N 44°18' E 008°29'0 0.0
2014-Sep-15 09:30N 44°18' E 008°29'2 2.3
2014-Sep-15 08:33N 44°17' E 008°27'0 0.2
2014-Sep-15 07:33N 44°17' E 008°27'1 1.2
2014-Sep-15 06:31N 44°17' E 008°29'1 1.3
2014-Sep-15 05:33N 44°18' E 008°29'0 0.0
2014-Sep-15 04:32N 44°18' E 008°29'0 0.0
2014-Sep-15 03:33N 44°18' E 008°29'0 0.0
2014-Sep-14 17:31N 44°18' E 008°29'0 0.0
2014-Sep-14 16:31N 44°18' E 008°29'0 0.0
2014-Sep-14 15:25N 44°18' E 008°29'0 0.0
2014-Sep-14 14:32N 44°18' E 008°29'0 0.0
2014-Sep-14 11:29N 44°18' E 008°29'0 0.0
2014-Sep-14 07:32N 44°18' E 008°29'0 0.0
2014-Sep-14 04:08N 44°18' E 008°29'0 0.0
2014-Sep-12 13:23N 44°19' E 008°30'3 3.1
2014-Sep-12 12:33N 44°17' E 008°28'1 0.9
2014-Sep-12 11:33N 44°17' E 008°29'1 1.3
2014-Sep-12 10:32N 44°18' E 008°29'0 0.0
2014-Sep-12 08:17N 44°18' E 008°29'0 0.0
2014-Sep-12 07:33N 44°18' E 008°29'0 0.0
2014-Sep-12 06:33N 44°18' E 008°29'0 0.0
2014-Sep-12 05:16N 44°18' E 008°29'0 0.0
2014-Sep-12 04:17N 44°18' E 008°29'0 0.0
2014-Sep-11 11:33N 44°18' E 008°29'0 0.0
2014-Sep-11 10:32N 44°18' E 008°29'0 0.0
2014-Sep-11 09:15N 44°18' E 008°29'0 0.0
2014-Sep-11 08:16N 44°18' E 008°29'1 1.1
2014-Sep-11 07:31N 44°19' E 008°30'3 3.1
2014-Sep-11 06:31N 44°17' E 008°28'2 1.0
2014-Sep-11 04:06N 44°18' E 008°29'0 0.0
2014-Sep-11 03:27N 44°18' E 008°29'0 0.0
2014-Sep-11 01:30N 44°18' E 008°29'0 0.0
2014-Sep-10 23:33N 44°18' E 008°29'0 0.0
2014-Sep-10 22:21N 44°18' E 008°29'3 0.3
2014-Sep-10 11:32N 44°16' E 008°27'3 0.6
2014-Sep-10 07:16N 44°18' E 008°29'0 0.0
2014-Sep-10 06:22N 44°18' E 008°29'0 0.0
2014-Sep-10 05:17N 44°18' E 008°29'1 1.0
2014-Sep-10 04:26N 44°19' E 008°30'1 0.0
2014-Sep-09 15:33N 44°19' E 008°30'2 1.6
2014-Sep-09 14:33N 44°17' E 008°29'1 0.2
2014-Sep-09 07:26N 44°18' E 008°29'0 0.0
2014-Sep-09 02:17N 44°18' E 008°29'0 0.0
2014-Sep-09 01:05N 44°18' E 008°29'0 0.0
2014-Sep-08 23:11N 44°18' E 008°29'0 0.0
2014-Sep-08 19:23N 44°18' E 008°29'0 0.0
2014-Sep-08 18:29N 44°18' E 008°29'0 0.0
2014-Sep-08 15:32N 44°18' E 008°29'0 0.0
2014-Sep-08 10:32N 44°18' E 008°29'1 0.8
2014-Sep-08 09:23N 44°19' E 008°31'4 4.5
2014-Sep-08 08:31N 44°16' E 008°27'1 1.0
2014-Sep-08 07:32N 44°17' E 008°28'1 0.2
2014-Sep-07 23:34N 44°18' E 008°29'1 1.2
2014-Sep-07 22:27N 44°17' E 008°28'0 0.0
2014-Sep-07 21:30N 44°17' E 008°28'2 0.4
2014-Sep-07 15:31N 44°18' E 008°29'  

Dump ship's entire track history